الصفحة الرئيسية
METAR-TAF:

METAR-TAF

مطار :

مكسيكالي, المكسيك

دائرة عرض: 32-37-50N, خط طول: 115-14-30W, ارتفاع: 22 متر

مراقبة الطقس الحالي

تاريخ ووقت الإصدار 2ساعات و 29 دقيقة قبل الساعة 07:40UTC
ريح 9 عقدة من الغرب
درجة الحرارة 14°درجة مئوية
الرطوبة 47%
ضغط 1018 hPa
الرؤية: 16.1 كم
سماء صافية

METAR: MMML 220740Z 27009KT 10SM SKC 14/03 A3006

زمن: 04:09 (10:09 UTC)

توقعات

تاريخ ووقت الإصدار 5ساعات و 28 دقيقة قبل الساعة 04:41UTC
التوقعات صالحة من22 الساعة 06 UTC إلى 23 الساعة 06 UTC
ريح 8 عقدة من الغرب
الرؤية: 10 كم
غيوم متفرقة على ارتفاع 25000 قدم
من 22 الساعة 1700 UTC
ريح 10 عقدة من الغرب
الرؤية: 10 كم
غيوم متفرقة على ارتفاع 25000 قدم
من 23 الساعة 0100 UTC
ريح 5 عقدة من الغرب/الشمال الغربي
الرؤية: 10 كم
ملبد بالغيوم على ارتفاع 25000 قدم

TAF: MMML 220441Z 2206/2306 26008KT P6SM SCT250 FM221700 26010KT P6SM SCT250 FM230100 30005KT P6SM OVC250

أرصاد الطقس والتوقعات من أكثر من 4000 مطار (تقارير الطقس للمطار METAR والتنبؤ بالطقس بالمطارTAF).

المحطات المتاحة هي النقط الصفراء والحمراء على الخريطة.

حرك المؤشر فوق النقطة لمعرفة اسم المحطة.

ثم انقر لمعرفة أرصاد وتوقعات الطقس.

لتغيير الخارطة: اضغط على الأزرار الخضراء مع رمز الصليب الأسود للتكبير. على الزر الأخضر مع شرطة للتصغير، أو على الأسهم الخضراء للخرائط المجاورة.


METAR-TAF: